Time;durP1;ratioP1;P1;durP2;ratioP2;P2;SDS_P1;SDS_P2;PMS_P1;PMS_P2;Temp;Humidity;BMP_temperature;BMP_pressure;BME280_temperature;BME280_humidity;BME280_pressure;Samples;Min_cycle;Max_cycle;Signal;HPM_P1;HPM_P2
2021/07/27 00:01:09;;;;;;;13.27;12.07;;;;;;;26.31;49.28;94821.33;834087;71;29743;-78
2021/07/27 00:16:08;;;;;;;14.40;12.90;;;;;;;;;;828372;71;29912;-77
2021/07/27 00:31:18;;;;;;;14.03;12.60;;;;;;;15.93;48.64;93289.27;828274;71;32762;-75
2021/07/27 00:46:09;;;;;;;13.50;11.93;;;;;;;26.16;48.71;94821.87;834419;71;29823;-77
2021/07/27 01:01:16;;;;;;;14.17;12.80;;;;;;;26.06;49.18;94821.84;834358;71;32721;-75
2021/07/27 01:16:10;;;;;;;13.80;12.50;;;;;;;26.08;48.87;94836.45;828335;71;30180;-75
2021/07/27 01:46:18;;;;;;;13.17;11.83;;;;;;;25.92;48.79;94829.28;828846;71;32687;-74
2021/07/27 02:01:16;;;;;;;13.90;12.50;;;;;;;25.94;48.76;94818.33;834319;71;32796;-77
2021/07/27 02:16:16;;;;;;;14.60;13.20;;;;;;;25.58;49.03;94837.52;827508;71;32711;-75
2021/07/27 02:31:14;;;;;;;12.97;11.77;;;;;;;24.41;51.46;94841.52;834139;71;30508;-77
2021/07/27 02:46:08;;;;;;;14.50;13.00;;;;;;;23.64;53.60;94830.83;828427;71;29731;-78
2021/07/27 03:16:10;;;;;;;15.70;14.03;;;;;;;22.85;55.71;94845.16;834119;71;29964;-77
2021/07/27 03:31:08;;;;;;;15.90;13.90;;;;;;;22.71;56.44;94847.58;828417;71;29963;-79
2021/07/27 03:46:08;;;;;;;16.77;12.13;;;;;;;23.86;55.87;94858.14;828734;71;29719;-77
2021/07/27 04:01:08;;;;;;;15.10;13.20;;;;;;;24.88;52.99;94860.77;829691;71;30023;-78
2021/07/27 04:16:08;;;;;;;14.83;12.93;;;;;;;25.15;51.83;94873.48;828357;71;29770;-77
2021/07/27 04:31:43;;;;;;;15.13;13.63;;;;;;;25.40;51.08;94875.03;827713;71;33185;-77
2021/07/27 04:46:09;;;;;;;108.10;86.67;;;;;;;25.64;51.90;94856.76;828497;71;29764;-77
2021/07/27 05:01:19;;;;;;;17.60;14.73;;;;;;;25.73;51.26;94873.31;828488;71;32728;-76
2021/07/27 05:16:14;;;;;;;17.00;15.30;;;;;;;25.23;51.89;94877.80;834995;71;30246;-81
2021/07/27 05:31:14;;;;;;;17.13;15.40;;;;;;;25.04;52.52;94884.15;828263;71;31760;-86
2021/07/27 05:46:14;;;;;;;17.70;16.00;;;;;;;25.51;51.88;94888.56;829358;70;31969;-83
2021/07/27 06:01:13;;;;;;;17.27;15.50;;;;;;;25.51;51.61;94892.59;829661;70;31668;-85
2021/07/27 06:16:17;;;;;;;17.37;15.60;;;;;;;26.08;50.31;94896.97;824898;71;32411;-83
2021/07/27 06:31:12;;;;;;;18.10;16.23;;;;;;;23.49;49.47;94405.31;828388;71;29394;-84
2021/07/27 06:46:08;;;;;;;18.40;16.63;;;;;;;26.69;49.00;94881.63;828386;71;28772;-84
2021/07/27 07:01:10;;;;;;;18.40;16.50;;;;;;;27.33;47.46;94882.26;834535;71;29429;-84
2021/07/27 07:02:14;;;;;;;19.50;17.43;;;;;;;27.33;47.46;165877.69;822305;72;25896;-85
2021/07/27 07:31:16;;;;;;;18.77;17.17;;;;;;;28.82;43.27;94867.33;828507;71;32154;-85
2021/07/27 07:46:09;;;;;;;24.03;21.77;;;;;;;29.00;42.34;94872.62;829755;71;27430;-80
2021/07/27 08:01:11;;;;;;;16.73;15.20;;;;;;;29.12;41.78;94870.81;834086;71;28524;-83
2021/07/27 08:16:15;;;;;;;18.10;16.20;;;;;;;29.54;41.26;94872.97;827579;71;30819;-79
2021/07/27 11:31:25;;;;;;;16.50;14.90;;;;;;;35.56;29.37;94754.86;827481;71;32762;-78
2021/07/27 11:46:18;;;;;;;17.00;15.17;;;;;;;35.70;28.68;94750.28;828282;71;33152;-77
2021/07/27 12:01:20;;;;;;;16.90;15.20;;;;;;;35.33;29.26;94747.27;828032;71;30364;-77
2021/07/27 12:16:17;;;;;;;15.53;13.87;;;;;;;35.77;28.47;94735.02;828164;71;30124;-75
2021/07/27 12:31:15;;;;;;;15.20;13.77;;;;;;;36.23;28.13;94729.02;833939;71;29791;-76
2021/07/27 12:46:22;;;;;;;14.70;13.20;;;;;;;36.63;27.66;94713.98;827882;71;32684;-76
2021/07/27 13:01:14;;;;;;;12.47;11.27;;;;;;;36.57;26.46;94698.61;834137;71;30749;-78
2021/07/27 13:16:21;;;;;;;17.90;9.97;;;;;;;36.28;24.70;94694.28;834458;71;31617;-76
2021/07/27 13:31:28;;;;;;;14.07;9.37;;;;;;;36.08;25.02;94687.19;827955;71;31782;-77
2021/07/27 13:46:20;;;;;;;14.20;8.97;;;;;;;36.35;24.55;94669.99;819523;71;28742;-74
2021/07/27 13:47:24;;;;;;;11.73;9.00;;;;;;;36.29;24.49;94675.29;800682;72;27020;-77
2021/07/27 14:01:27;;;;;;;16.43;9.23;;;;;;;36.13;23.78;94668.07;835360;71;31754;-76
2021/07/27 14:16:30;;;;;;;11.60;8.10;;;;;;;35.96;23.91;94659.98;828365;71;30061;-79
2021/07/27 14:31:14;;;;;;;11.27;8.10;;;;;;;35.82;23.28;94651.11;834066;71;29304;-75
2021/07/27 14:46:12;;;;;;;13.97;7.93;;;;;;;35.67;23.36;94639.22;828573;71;29274;-76
2021/07/27 15:16:32;;;;;;;16.67;9.30;;;;;;;35.28;23.83;94624.42;834052;71;31796;-76
2021/07/27 15:31:12;;;;;;;12.60;8.80;;;;;;;35.14;25.74;94628.23;827967;71;30410;-76
2021/07/27 15:46:10;;;;;;;14.43;9.87;;;;;;;34.89;27.26;94620.33;807903;71;29372;-76
2021/07/27 16:01:08;;;;;;;11.07;9.90;;;;;;;34.61;28.77;94626.91;828351;71;28340;-76
2021/07/27 16:16:08;;;;;;;13.93;10.47;;;;;;;34.25;29.43;94632.77;828351;71;28499;-75
2021/07/27 16:31:09;;;;;;;10.53;9.40;;;;;;;33.86;30.13;94640.95;828314;71;28327;-75
2021/07/27 16:46:15;;;;;;;13.30;10.40;;;;;;;33.41;31.62;94654.08;828267;71;31859;-77
2021/07/27 17:01:13;;;;;;;11.80;10.50;;;;;;;32.95;32.45;94660.19;834106;71;31647;-75
2021/07/27 17:16:08;;;;;;;12.13;9.60;;;;;;;32.49;32.54;94668.28;828086;71;29213;-77
2021/07/27 17:31:07;;;;;;;13.03;9.90;;;;;;;31.97;33.62;94670.44;828368;71;28590;-77
2021/07/27 17:46:05;;;;;;;15.13;11.03;;;;;;;31.38;34.64;94667.98;834719;71;28563;-74
2021/07/27 18:01:07;;;;;;;14.30;11.83;;;;;;;30.88;36.81;94683.27;827997;71;29994;-76
2021/07/27 18:16:04;;;;;;;15.57;11.90;;;;;;;30.38;38.60;94675.19;828560;71;28390;-76
2021/07/27 18:31:11;;;;;;;140.47;116.27;;;;;;;30.08;42.04;94703.23;834188;71;31798;-76
2021/07/27 18:46:02;;;;;;;27.93;24.60;;;;;;;29.83;41.46;94729.30;834802;71;29155;-76
2021/07/27 19:01:11;;;;;;;21.20;18.50;;;;;;;29.54;43.36;94736.39;834141;71;31874;-79
2021/07/27 19:15:59;;;;;;;17.17;15.33;;;;;;;29.30;44.10;94732.00;828319;71;29256;-79
2021/07/27 19:30:58;;;;;;;23.97;15.23;;;;;;;28.87;44.44;94708.09;834610;71;29252;-77
2021/07/27 20:00:55;;;;;;;25.30;15.43;;;;;;;28.51;46.98;94733.48;821753;71;28638;-79
2021/07/27 20:15:54;;;;;;;17.30;14.00;;;;;;;28.22;48.00;94739.61;820890;71;28850;-75
2021/07/27 20:30:53;;;;;;;18.57;12.73;;;;;;;27.81;48.27;94760.43;828180;71;28896;-77
2021/07/27 20:45:51;;;;;;;13.73;11.70;;;;;;;;;;834744;71;29272;-76
2021/07/27 21:02:34;;;;;;;17.60;12.50;;;;;;;27.39;50.23;94770.20;834805;71;31884;-82
2021/07/27 21:17:05;;;;;;;14.63;12.43;;;;;;;;;;828351;70;31802;-76
2021/07/27 21:32:05;;;;;;;16.27;12.33;;;;;;;;;;833988;71;31739;-75
2021/07/27 21:46:58;;;;;;;13.80;10.80;;;;;;;27.40;50.51;94793.31;828252;71;28529;-76
2021/07/27 22:02:06;;;;;;;13.90;11.93;;;;;;;27.36;50.14;94785.81;827483;71;31831;-74
2021/07/27 22:17:22;;;;;;;14.40;12.00;;;;;;;27.35;50.54;94790.45;829931;71;31807;-75
2021/07/27 22:32:09;;;;;;;14.13;12.70;;;;;;;;;;834080;71;29020;-76
2021/07/27 22:46:55;;;;;;;13.17;11.70;;;;;;;-146.52;100.00;123554.02;834035;71;28830;-75
2021/07/27 22:47:58;;;;;;;15.93;12.77;;;;;;;;;;822112;72;25872;-75
2021/07/27 23:02:09;;;;;;;15.30;11.43;;;;;;;27.16;51.32;123554.15;828057;71;29093;-74
2021/07/27 23:17:14;;;;;;;15.03;12.67;;;;;;;;;;828272;71;29731;-78
2021/07/27 23:32:05;;;;;;;15.30;11.70;;;;;;;;;;828836;71;31358;-77
2021/07/27 23:47:03;;;;;;;12.33;11.00;;;;;;;27.05;50.39;94780.07;834248;71;28697;-76
